Time;durP1;ratioP1;P1;durP2;ratioP2;P2;SDS_P1;SDS_P2;PMS_P1;PMS_P2;Temp;Humidity;BMP_temperature;BMP_pressure;BME280_temperature;BME280_humidity;BME280_pressure;Samples;Min_cycle;Max_cycle;Signal;HPM_P1;HPM_P2
2021/07/02 00:01:11;;;;;;;19.05;12.05;;;16.30;99.90;;;;;;4141822;28;20038;-71
2021/07/02 00:03:12;;;;;;;18.90;11.50;;;16.30;99.90;;;;;;4142186;28;20487;-71
2021/07/02 00:05:13;;;;;;;18.85;11.38;;;16.30;99.90;;;;;;4140871;28;20386;-71
2021/07/02 00:07:14;;;;;;;17.10;12.25;;;16.30;99.90;;;;;;4143560;28;20648;-71
2021/07/02 00:09:15;;;;;;;20.52;12.57;;;16.30;99.90;;;;;;4142252;28;20045;-71
2021/07/02 00:11:15;;;;;;;18.30;12.20;;;16.30;99.90;;;;;;4135349;28;20046;-71
2021/07/02 00:13:16;;;;;;;18.77;11.93;;;16.30;99.90;;;;;;4141291;28;20041;-71
2021/07/02 00:15:17;;;;;;;21.83;13.48;;;16.30;99.90;;;;;;4135908;28;20092;-71
2021/07/02 00:17:18;;;;;;;21.80;12.27;;;16.30;99.90;;;;;;4135390;28;20070;-71
2021/07/02 00:19:19;;;;;;;18.63;12.05;;;16.30;99.90;;;;;;4142779;28;20038;-71
2021/07/02 00:21:19;;;;;;;17.33;11.90;;;16.30;99.90;;;;;;4114018;28;20341;-71
2021/07/02 00:23:20;;;;;;;17.13;11.23;;;16.30;99.90;;;;;;4140860;28;20049;-71
2021/07/02 00:25:21;;;;;;;18.67;12.05;;;16.40;99.90;;;;;;4135959;28;20049;-71
2021/07/02 00:27:21;;;;;;;16.35;11.20;;;16.30;99.90;;;;;;4143147;28;20034;-71
2021/07/02 00:29:22;;;;;;;21.30;11.65;;;16.30;99.90;;;;;;4135259;28;20026;-71
2021/07/02 00:31:23;;;;;;;19.17;12.35;;;16.30;99.90;;;;;;4140191;28;20622;-71
2021/07/02 00:33:24;;;;;;;20.48;12.10;;;16.30;99.90;;;;;;4136242;28;20117;-71
2021/07/02 00:35:25;;;;;;;20.65;11.90;;;16.30;99.90;;;;;;4135404;28;20030;-71
2021/07/02 00:37:25;;;;;;;18.90;12.23;;;16.30;99.90;;;;;;4136416;28;20041;-71
2021/07/02 00:39:26;;;;;;;16.98;11.70;;;16.30;99.90;;;;;;4139687;28;20394;-71
2021/07/02 00:41:26;;;;;;;18.73;12.85;;;16.30;99.90;;;;;;4133289;28;20113;-71
2021/07/02 00:43:27;;;;;;;17.27;11.55;;;16.30;99.90;;;;;;4140215;28;20057;-71
2021/07/02 00:45:28;;;;;;;19.17;11.75;;;16.30;99.90;;;;;;4141055;28;20104;-72
2021/07/02 00:47:28;;;;;;;19.10;11.43;;;16.20;99.90;;;;;;4131619;28;20526;-71
2021/07/02 00:49:29;;;;;;;23.65;13.45;;;16.20;99.90;;;;;;4139523;28;20034;-71
2021/07/02 00:51:31;;;;;;;19.15;12.02;;;16.20;99.90;;;;;;4136509;28;20510;-71
2021/07/02 00:53:31;;;;;;;18.20;11.70;;;16.20;99.90;;;;;;4135799;28;20486;-71
2021/07/02 00:55:32;;;;;;;22.75;13.20;;;16.20;99.90;;;;;;4141568;28;20038;-71
2021/07/02 00:57:35;;;;;;;20.23;12.10;;;16.20;99.90;;;;;;4142843;28;20038;-71
2021/07/02 00:59:37;;;;;;;22.13;12.23;;;16.20;99.90;;;;;;4141336;28;20033;-71
2021/07/02 01:01:37;;;;;;;24.48;13.35;;;16.20;99.90;;;;;;4142463;28;20061;-71
2021/07/02 01:03:38;;;;;;;20.88;12.30;;;16.10;99.90;;;;;;4141110;28;20133;-71
2021/07/02 01:05:39;;;;;;;22.23;12.63;;;16.10;99.90;;;;;;4137406;28;20050;-71
2021/07/02 01:07:41;;;;;;;20.83;12.18;;;16.10;99.90;;;;;;4142358;28;20449;-71
2021/07/02 01:09:43;;;;;;;17.15;11.13;;;16.10;99.90;;;;;;4140019;28;20057;-71
2021/07/02 01:11:44;;;;;;;22.35;12.98;;;16.10;99.90;;;;;;4140552;28;20107;-71
2021/07/02 01:13:44;;;;;;;19.83;11.18;;;16.10;99.90;;;;;;4141116;28;20168;-71
2021/07/02 01:15:54;;;;;;;17.63;11.55;;;16.10;99.90;;;;;;4141061;28;20038;-71
2021/07/02 01:17:55;;;;;;;18.75;12.15;;;16.10;99.90;;;;;;4141389;28;20062;-71
2021/07/02 01:19:55;;;;;;;19.02;12.52;;;16.10;99.90;;;;;;4124690;28;20070;-71
2021/07/02 01:21:56;;;;;;;19.67;12.85;;;16.10;99.90;;;;;;4142314;28;20740;-71
2021/07/02 01:23:57;;;;;;;20.90;13.65;;;16.10;99.90;;;;;;4138743;28;20060;-71
2021/07/02 01:25:59;;;;;;;21.27;11.88;;;16.10;99.90;;;;;;4134455;28;20478;-71
2021/07/02 01:28:00;;;;;;;19.58;11.95;;;16.10;99.90;;;;;;4140300;28;20572;-71
2021/07/02 01:30:02;;;;;;;22.02;12.35;;;16.10;99.90;;;;;;4136017;28;20038;-71
2021/07/02 01:32:03;;;;;;;21.13;12.95;;;16.10;99.90;;;;;;4135738;28;20484;-71
2021/07/02 01:34:03;;;;;;;17.23;11.95;;;16.10;99.90;;;;;;4140436;28;20030;-71
2021/07/02 01:36:10;;;;;;;18.95;11.80;;;16.10;99.90;;;;;;4134226;28;20041;-71
2021/07/02 01:38:10;;;;;;;19.45;11.68;;;16.10;99.90;;;;;;4133754;28;20117;-71
2021/07/02 01:40:11;;;;;;;17.83;11.30;;;16.10;99.90;;;;;;4141250;28;20034;-71
2021/07/02 01:42:12;;;;;;;17.17;11.40;;;16.10;99.90;;;;;;4141562;28;20072;-71
2021/07/02 01:44:13;;;;;;;15.15;10.70;;;16.10;99.90;;;;;;4141756;28;20038;-72
2021/07/02 01:46:14;;;;;;;16.77;11.00;;;16.10;99.90;;;;;;4142272;28;20041;-71
2021/07/02 01:48:15;;;;;;;19.73;12.00;;;16.10;99.90;;;;;;4141448;28;20038;-71
2021/07/02 01:50:16;;;;;;;19.02;11.10;;;16.10;99.90;;;;;;4135974;28;20054;-71
2021/07/02 01:52:17;;;;;;;24.20;12.68;;;16.10;99.90;;;;;;4139582;28;20124;-71
2021/07/02 01:54:18;;;;;;;15.80;11.25;;;16.10;99.90;;;;;;4135020;28;20418;-71
2021/07/02 01:56:18;;;;;;;18.88;11.18;;;16.10;99.90;;;;;;4140666;28;20038;-71
2021/07/02 01:58:19;;;;;;;20.58;12.35;;;16.10;99.90;;;;;;4142131;28;20049;-71
2021/07/02 02:00:20;;;;;;;19.00;11.52;;;16.10;99.90;;;;;;4141077;28;20164;-71
2021/07/02 02:02:21;;;;;;;21.77;12.90;;;16.10;99.90;;;;;;4127989;28;20082;-71
2021/07/02 02:04:22;;;;;;;16.63;11.88;;;16.10;99.90;;;;;;4141551;28;20114;-71
2021/07/02 02:06:22;;;;;;;18.83;11.77;;;16.10;99.90;;;;;;4140256;28;20046;-71
2021/07/02 02:08:23;;;;;;;18.88;11.80;;;16.10;99.90;;;;;;4138808;28;20046;-71
2021/07/02 02:10:24;;;;;;;19.65;12.43;;;16.10;99.90;;;;;;4140945;28;20046;-71
2021/07/02 02:12:24;;;;;;;18.67;11.80;;;16.00;99.90;;;;;;4144938;28;20046;-71
2021/07/02 02:14:25;;;;;;;14.57;10.18;;;16.00;99.90;;;;;;4144107;28;20481;-71
2021/07/02 02:16:25;;;;;;;15.57;11.13;;;16.00;99.90;;;;;;4137552;28;20070;-71
2021/07/02 02:18:26;;;;;;;15.40;10.90;;;16.00;99.90;;;;;;4142264;28;20592;-71
2021/07/02 02:20:27;;;;;;;16.90;10.65;;;16.00;99.90;;;;;;4138849;28;20034;-71
2021/07/02 02:22:27;;;;;;;15.57;10.60;;;16.00;99.90;;;;;;4141207;28;20042;-71
2021/07/02 02:24:30;;;;;;;15.75;10.90;;;16.00;99.90;;;;;;4140609;28;20041;-72
2021/07/02 02:26:30;;;;;;;22.50;12.73;;;16.00;99.90;;;;;;4135226;28;20035;-71
2021/07/02 02:28:31;;;;;;;16.95;10.77;;;16.00;99.90;;;;;;4137387;28;20092;-71
2021/07/02 02:30:35;;;;;;;17.08;11.13;;;16.00;99.90;;;;;;4140765;28;20044;-71
2021/07/02 02:32:37;;;;;;;18.08;12.13;;;16.00;99.90;;;;;;4139513;28;20076;-71
2021/07/02 02:34:38;;;;;;;17.27;11.05;;;15.90;99.90;;;;;;4137276;28;20045;-71
2021/07/02 02:36:38;;;;;;;16.77;10.90;;;16.00;99.90;;;;;;4144821;28;20125;-71
2021/07/02 02:38:39;;;;;;;17.52;11.05;;;15.90;99.90;;;;;;4143759;28;20092;-71
2021/07/02 02:40:40;;;;;;;14.32;10.07;;;15.90;99.90;;;;;;4138524;28;20042;-71
2021/07/02 02:42:40;;;;;;;14.48;10.63;;;15.90;99.90;;;;;;4140205;28;20077;-71
2021/07/02 02:44:41;;;;;;;19.27;11.15;;;16.00;99.90;;;;;;4139083;28;20142;-71
2021/07/02 02:46:41;;;;;;;17.25;10.27;;;15.90;99.90;;;;;;4144018;28;20050;-71
2021/07/02 02:48:42;;;;;;;21.95;11.77;;;15.90;99.90;;;;;;4142166;28;20122;-71
2021/07/02 02:50:42;;;;;;;17.33;10.88;;;15.90;99.90;;;;;;4125768;28;20482;-71
2021/07/02 02:52:43;;;;;;;15.73;10.77;;;15.90;99.90;;;;;;4139817;28;20049;-71
2021/07/02 02:54:44;;;;;;;15.18;10.43;;;15.90;99.90;;;;;;4139676;28;20056;-71
2021/07/02 02:59:04;;;;;;;17.80;10.68;;;15.90;99.90;;;;;;4141492;28;20038;-71
2021/07/02 03:01:04;;;;;;;15.35;9.98;;;15.90;99.90;;;;;;4142715;28;20044;-71
2021/07/02 03:03:05;;;;;;;16.00;10.82;;;15.90;99.90;;;;;;4139547;28;20033;-71
2021/07/02 03:05:06;;;;;;;18.60;11.35;;;15.90;99.90;;;;;;4140677;28;20049;-71
2021/07/02 03:07:07;;;;;;;17.27;11.07;;;15.80;99.90;;;;;;4140112;28;20033;-71
2021/07/02 03:09:07;;;;;;;15.90;10.63;;;15.90;99.90;;;;;;4142796;28;20493;-71
2021/07/02 03:11:08;;;;;;;19.25;11.18;;;15.90;99.90;;;;;;4143915;28;20048;-72
2021/07/02 03:13:10;;;;;;;17.63;11.35;;;15.80;99.90;;;;;;4141499;28;20410;-71
2021/07/02 03:15:13;;;;;;;14.90;10.52;;;15.80;99.90;;;;;;4122285;28;20557;-71
2021/07/02 03:17:14;;;;;;;15.82;10.80;;;15.80;99.90;;;;;;4141528;28;20118;-71
2021/07/02 03:19:15;;;;;;;17.13;11.35;;;15.80;99.90;;;;;;4142272;28;20038;-72
2021/07/02 03:21:16;;;;;;;28.60;11.77;;;15.80;99.90;;;;;;4139948;28;20038;-71
2021/07/02 03:23:16;;;;;;;17.88;11.20;;;15.80;99.90;;;;;;4141996;28;20034;-71
2021/07/02 03:25:17;;;;;;;15.95;11.45;;;15.80;99.90;;;;;;4139731;28;20032;-71
2021/07/02 03:27:18;;;;;;;17.90;10.85;;;15.80;99.90;;;;;;4141602;28;20066;-71
2021/07/02 03:29:18;;;;;;;17.13;10.88;;;15.80;99.90;;;;;;4140568;28;20037;-71
2021/07/02 03:31:19;;;;;;;17.55;10.90;;;15.70;99.90;;;;;;4140872;28;20034;-71
2021/07/02 03:33:20;;;;;;;20.73;11.65;;;15.80;99.90;;;;;;4139160;28;20030;-71
2021/07/02 03:35:20;;;;;;;19.58;11.30;;;15.70;99.90;;;;;;4141922;28;20981;-71
2021/07/02 03:37:21;;;;;;;16.52;11.15;;;15.70;99.90;;;;;;4139988;28;20120;-71
2021/07/02 03:39:22;;;;;;;17.10;11.70;;;15.70;99.90;;;;;;4141690;28;20419;-71
2021/07/02 03:41:23;;;;;;;16.98;10.85;;;15.70;99.90;;;;;;4124818;28;20031;-71
2021/07/02 03:43:23;;;;;;;18.38;11.32;;;15.60;99.90;;;;;;4137497;28;20088;-72
2021/07/02 03:45:24;;;;;;;17.48;11.95;;;15.70;99.90;;;;;;4139538;28;20620;-71
2021/07/02 03:47:25;;;;;;;22.23;11.35;;;15.70;99.90;;;;;;4142741;28;20026;-71
2021/07/02 03:49:26;;;;;;;19.10;12.05;;;15.60;99.90;;;;;;4139804;28;20030;-72
2021/07/02 03:51:27;;;;;;;17.27;11.13;;;15.60;99.90;;;;;;4140193;28;20094;-71
2021/07/02 03:53:29;;;;;;;17.13;11.45;;;15.60;99.90;;;;;;4142918;28;20137;-71
2021/07/02 03:55:30;;;;;;;18.83;11.50;;;15.60;99.90;;;;;;4140376;28;20107;-71
2021/07/02 03:57:30;;;;;;;19.80;12.75;;;15.60;99.90;;;;;;4141873;28;20293;-71
2021/07/02 03:59:31;;;;;;;22.25;12.07;;;15.60;99.90;;;;;;4139998;28;20030;-71
2021/07/02 04:01:31;;;;;;;16.45;11.13;;;15.60;99.90;;;;;;4139892;28;20046;-71
2021/07/02 04:03:32;;;;;;;19.05;11.52;;;15.60;99.90;;;;;;4142036;28;20533;-71
2021/07/02 04:05:33;;;;;;;15.38;10.65;;;15.50;99.90;;;;;;4142287;28;20117;-71
2021/07/02 04:07:34;;;;;;;19.80;11.55;;;15.60;99.90;;;;;;4141715;28;20034;-71
2021/07/02 04:09:35;;;;;;;19.58;11.75;;;15.50;99.90;;;;;;4142075;28;20498;-71
2021/07/02 04:11:35;;;;;;;20.02;12.40;;;15.50;99.90;;;;;;4140654;28;20045;-71
2021/07/02 04:13:36;;;;;;;17.88;11.23;;;15.60;99.90;;;;;;4141614;28;20049;-71
2021/07/02 04:15:37;;;;;;;19.88;12.40;;;15.50;99.90;;;;;;4124337;28;20038;-71
2021/07/02 04:17:38;;;;;;;17.92;11.45;;;15.50;99.90;;;;;;4139977;28;20654;-71
2021/07/02 04:19:39;;;;;;;19.23;11.27;;;15.50;99.90;;;;;;4139984;28;20044;-72
2021/07/02 04:21:40;;;;;;;17.17;11.07;;;15.50;99.90;;;;;;4141246;28;20069;-71
2021/07/02 04:23:40;;;;;;;22.13;12.73;;;15.50;99.90;;;;;;4142369;28;20072;-71
2021/07/02 04:25:41;;;;;;;18.20;11.77;;;15.50;99.90;;;;;;4140693;28;20046;-72
2021/07/02 04:27:42;;;;;;;21.92;12.23;;;15.50;99.90;;;;;;4141290;28;20046;-72
2021/07/02 04:29:43;;;;;;;16.15;11.90;;;15.50;99.90;;;;;;4140880;28;20142;-71
2021/07/02 04:31:44;;;;;;;16.45;11.05;;;15.50;99.90;;;;;;4139258;28;20052;-72
2021/07/02 04:33:45;;;;;;;20.95;12.75;;;15.50;99.90;;;;;;4141095;28;20510;-71
2021/07/02 04:35:46;;;;;;;21.73;12.65;;;15.50;99.90;;;;;;4120748;28;20042;-71
2021/07/02 04:37:47;;;;;;;20.33;12.25;;;15.50;99.90;;;;;;4135630;28;20045;-72
2021/07/02 04:39:47;;;;;;;18.67;11.80;;;15.50;99.90;;;;;;4136564;28;20045;-71
2021/07/02 04:41:48;;;;;;;19.92;11.63;;;15.40;99.90;;;;;;4138285;28;20050;-71
2021/07/02 04:43:50;;;;;;;21.83;12.15;;;15.40;99.90;;;;;;4137338;28;20717;-72
2021/07/02 04:45:51;;;;;;;20.33;12.85;;;15.50;99.90;;;;;;4119959;28;20054;-72
2021/07/02 04:47:51;;;;;;;19.48;11.88;;;15.40;99.90;;;;;;4135372;28;20042;-72
2021/07/02 04:49:52;;;;;;;23.33;12.50;;;15.50;99.90;;;;;;4138012;28;20065;-71
2021/07/02 04:51:53;;;;;;;19.30;12.25;;;15.40;99.90;;;;;;4139325;28;20151;-71
2021/07/02 04:53:53;;;;;;;19.05;12.07;;;15.50;99.90;;;;;;4138474;28;21215;-72
2021/07/02 04:55:54;;;;;;;18.58;12.45;;;15.40;99.90;;;;;;4139134;28;20056;-73
2021/07/02 04:57:54;;;;;;;19.58;12.77;;;15.50;99.90;;;;;;4136615;28;20128;-73
2021/07/02 04:59:59;;;;;;;20.95;12.85;;;15.50;99.90;;;;;;4136847;28;20038;-72
2021/07/02 05:02:00;;;;;;;23.38;12.77;;;15.50;99.90;;;;;;4139276;28;20026;-72
2021/07/02 05:04:01;;;;;;;21.27;12.57;;;15.50;99.90;;;;;;4138892;28;20717;-72
2021/07/02 05:06:05;;;;;;;18.50;12.23;;;15.50;99.90;;;;;;4139738;28;20030;-72
2021/07/02 05:08:06;;;;;;;18.35;11.65;;;15.50;99.90;;;;;;4138269;28;20026;-73
2021/07/02 05:10:07;;;;;;;17.13;11.10;;;15.50;99.90;;;;;;4137646;28;20049;-73
2021/07/02 05:12:10;;;;;;;18.20;11.63;;;15.60;99.90;;;;;;4136979;28;20045;-72
2021/07/02 05:14:11;;;;;;;19.17;12.10;;;15.60;99.90;;;;;;4138952;28;20026;-72
2021/07/02 05:16:11;;;;;;;18.52;12.45;;;15.60;99.90;;;;;;4135917;28;20132;-73
2021/07/02 05:18:12;;;;;;;20.67;11.48;;;15.60;99.90;;;;;;4138881;28;20718;-73
2021/07/02 05:20:12;;;;;;;19.45;11.52;;;15.60;99.90;;;;;;4139734;28;20030;-72
2021/07/02 05:22:16;;;;;;;18.63;11.60;;;15.60;99.90;;;;;;4133729;28;20045;-72
2021/07/02 05:24:17;;;;;;;18.80;11.63;;;15.70;99.90;;;;;;4147974;28;20480;-72
2021/07/02 05:26:17;;;;;;;21.95;12.93;;;15.70;99.90;;;;;;4139518;28;20045;-72
2021/07/02 05:28:18;;;;;;;20.90;11.63;;;15.70;99.90;;;;;;4137282;28;20038;-73
2021/07/02 05:30:19;;;;;;;20.40;12.55;;;15.70;99.90;;;;;;4138276;28;20057;-72
2021/07/02 05:32:20;;;;;;;20.35;12.07;;;15.80;99.90;;;;;;4136838;28;20502;-72
2021/07/02 05:34:20;;;;;;;20.20;12.05;;;15.80;99.90;;;;;;4138894;28;20042;-72
2021/07/02 05:36:21;;;;;;;18.52;11.93;;;15.80;99.90;;;;;;4136386;28;20781;-72
2021/07/02 05:38:21;;;;;;;19.77;12.73;;;15.80;99.90;;;;;;4134262;28;20034;-73
2021/07/02 05:40:22;;;;;;;21.15;12.40;;;15.90;99.90;;;;;;4138765;28;20038;-73
2021/07/02 05:42:24;;;;;;;25.98;12.88;;;15.90;99.90;;;;;;4136500;28;20550;-72
2021/07/02 05:44:26;;;;;;;20.73;11.57;;;15.90;99.90;;;;;;4138337;28;20069;-72
2021/07/02 05:46:26;;;;;;;21.05;12.57;;;16.00;99.90;;;;;;4137542;28;20561;-72
2021/07/02 05:48:28;;;;;;;21.08;11.70;;;16.00;99.90;;;;;;4134639;28;20045;-72
2021/07/02 05:50:30;;;;;;;22.40;12.90;;;16.10;99.90;;;;;;4138456;28;20038;-73
2021/07/02 05:52:32;;;;;;;20.63;11.88;;;16.00;99.90;;;;;;4138760;28;20111;-73
2021/07/02 05:54:32;;;;;;;18.35;11.75;;;16.00;99.90;;;;;;4136564;28;20057;-73
2021/07/02 05:56:33;;;;;;;20.02;11.50;;;16.00;99.90;;;;;;4133615;28;20592;-72
2021/07/02 05:58:34;;;;;;;18.35;10.75;;;15.90;99.90;;;;;;4136226;28;20110;-72
2021/07/02 06:00:34;;;;;;;18.67;10.95;;;16.00;99.90;;;;;;4138927;28;20072;-72
2021/07/02 06:02:35;;;;;;;16.75;11.00;;;16.00;99.90;;;;;;4135716;28;20121;-73
2021/07/02 06:04:36;;;;;;;16.52;10.38;;;16.00;99.90;;;;;;4136922;28;20034;-72
2021/07/02 06:06:37;;;;;;;19.38;11.27;;;16.00;99.90;;;;;;4138997;28;20084;-72
2021/07/02 06:08:37;;;;;;;18.17;10.48;;;16.00;99.90;;;;;;4137147;28;20714;-72
2021/07/02 06:10:38;;;;;;;15.32;9.60;;;16.00;99.90;;;;;;4138379;28;20046;-72
2021/07/02 06:12:38;;;;;;;15.88;10.50;;;16.00;99.90;;;;;;4136154;28;20056;-72
2021/07/02 06:14:39;;;;;;;16.55;10.00;;;16.00;99.90;;;;;;4135860;28;20050;-72
2021/07/02 06:16:39;;;;;;;16.95;10.85;;;16.10;99.90;;;;;;4138429;28;20057;-73
2021/07/02 06:18:40;;;;;;;15.80;9.95;;;16.10;99.90;;;;;;4136202;28;20042;-73
2021/07/02 06:20:41;;;;;;;20.70;11.18;;;16.10;99.90;;;;;;4137783;28;20037;-73
2021/07/02 06:22:42;;;;;;;17.52;10.23;;;16.20;99.90;;;;;;4138052;28;20129;-73
2021/07/02 06:24:42;;;;;;;18.83;11.48;;;16.20;99.90;;;;;;4135177;28;20100;-72
2021/07/02 06:26:43;;;;;;;19.90;11.10;;;16.20;99.90;;;;;;4137209;28;20061;-72
2021/07/02 06:28:44;;;;;;;18.75;9.55;;;16.20;99.90;;;;;;4138980;28;20062;-72
2021/07/02 06:30:45;;;;;;;22.13;10.52;;;16.20;99.90;;;;;;4137471;28;20053;-72
2021/07/02 06:32:46;;;;;;;17.02;9.70;;;16.20;99.90;;;;;;4134934;28;20058;-73
2021/07/02 06:34:46;;;;;;;20.05;9.63;;;16.20;99.90;;;;;;4138170;28;20687;-72
2021/07/02 06:36:47;;;;;;;14.02;9.32;;;16.20;99.90;;;;;;4138693;28;20045;-72
2021/07/02 06:38:48;;;;;;;16.10;9.85;;;16.20;99.90;;;;;;4137995;28;20061;-72
2021/07/02 06:40:49;;;;;;;18.23;9.77;;;16.30;99.90;;;;;;4138824;28;20094;-73
2021/07/02 06:42:49;;;;;;;17.60;11.15;;;16.30;99.90;;;;;;4136958;28;20080;-72
2021/07/02 06:44:50;;;;;;;17.42;9.93;;;16.20;99.90;;;;;;4138261;28;20053;-72
2021/07/02 06:46:51;;;;;;;16.58;9.98;;;16.30;99.90;;;;;;4138629;28;20045;-73
2021/07/02 06:48:51;;;;;;;15.90;9.70;;;16.30;99.90;;;;;;4137801;28;20041;-72
2021/07/02 06:50:56;;;;;;;14.85;9.55;;;16.30;99.90;;;;;;4138545;28;20034;-73
2021/07/02 06:52:57;;;;;;;15.18;9.55;;;16.30;99.90;;;;;;4138070;28;20042;-73
2021/07/02 06:54:58;;;;;;;15.73;8.65;;;16.40;99.90;;;;;;4138607;28;20048;-72
2021/07/02 06:57:07;;;;;;;13.88;8.52;;;16.30;99.90;;;;;;4138662;28;20676;-73
2021/07/02 06:59:08;;;;;;;15.32;8.57;;;16.30;99.90;;;;;;4138925;28;20339;-73
2021/07/02 07:01:08;;;;;;;15.55;9.70;;;16.40;99.90;;;;;;4142308;28;20033;-72
2021/07/02 07:03:09;;;;;;;12.68;8.32;;;16.40;99.90;;;;;;4141012;28;20034;-73
2021/07/02 07:05:11;;;;;;;11.75;8.20;;;16.40;99.90;;;;;;4140766;28;20050;-72
2021/07/02 07:07:12;;;;;;;11.65;7.80;;;16.50;99.90;;;;;;4141568;28;20030;-72
2021/07/02 07:09:12;;;;;;;16.25;8.32;;;16.50;99.90;;;;;;4140449;28;20504;-72
2021/07/02 07:11:13;;;;;;;16.85;9.38;;;16.50;99.90;;;;;;4140738;28;20125;-72
2021/07/02 07:13:14;;;;;;;12.70;8.38;;;16.50;99.90;;;;;;4140665;28;20022;-72
2021/07/02 07:15:15;;;;;;;13.68;8.43;;;16.50;99.90;;;;;;4140502;28;20034;-73
2021/07/02 07:17:16;;;;;;;15.48;9.73;;;16.60;99.90;;;;;;4138918;28;20189;-72
2021/07/02 07:19:17;;;;;;;17.17;9.85;;;16.60;99.90;;;;;;4140922;28;20598;-73
2021/07/02 07:21:18;;;;;;;13.27;8.65;;;16.60;99.90;;;;;;4138602;28;20091;-72
2021/07/02 07:23:18;;;;;;;13.38;8.13;;;16.60;99.90;;;;;;4138784;28;20096;-73
2021/07/02 07:25:21;;;;;;;15.85;8.40;;;16.70;99.90;;;;;;4139241;28;20360;-73
2021/07/02 07:27:22;;;;;;;14.52;8.65;;;16.70;99.90;;;;;;4138148;28;20046;-72
2021/07/02 07:29:23;;;;;;;17.95;9.13;;;16.80;99.90;;;;;;4137566;28;20042;-73
2021/07/02 07:31:24;;;;;;;11.77;7.88;;;16.80;99.90;;;;;;4139862;28;20137;-73
2021/07/02 07:33:24;;;;;;;13.70;8.02;;;16.80;99.90;;;;;;4138955;28;20084;-72
2021/07/02 07:37:29;;;;;;;11.95;7.82;;;17.00;99.90;;;;;;4139838;28;20046;-73
2021/07/02 07:39:29;;;;;;;13.68;8.13;;;17.00;99.90;;;;;;4138848;28;20034;-73
2021/07/02 07:41:30;;;;;;;12.18;7.72;;;17.20;99.90;;;;;;4138679;28;20060;-73
2021/07/02 07:43:31;;;;;;;12.25;8.15;;;17.20;99.90;;;;;;4139502;28;20041;-73
2021/07/02 07:45:32;;;;;;;12.80;7.05;;;17.30;99.90;;;;;;4121191;28;20042;-73
2021/07/02 07:47:32;;;;;;;15.60;7.60;;;17.30;99.90;;;;;;4137571;28;20051;-73
2021/07/02 07:49:33;;;;;;;12.70;7.68;;;17.40;99.90;;;;;;4138546;28;21319;-72
2021/07/02 07:51:44;;;;;;;14.82;7.25;;;17.50;99.90;;;;;;4138336;28;21340;-72
2021/07/02 07:53:45;;;;;;;11.93;6.50;;;17.50;99.90;;;;;;4134570;28;20057;-73
2021/07/02 07:55:46;;;;;;;13.23;7.00;;;17.60;99.90;;;;;;4135289;28;20034;-73
2021/07/02 07:57:46;;;;;;;17.45;7.15;;;17.60;99.90;;;;;;4138829;28;20121;-73
2021/07/02 07:59:47;;;;;;;11.13;6.60;;;17.70;99.90;;;;;;4139309;28;20065;-73
2021/07/02 08:01:48;;;;;;;10.98;6.28;;;17.70;99.90;;;;;;4137713;28;20081;-72
2021/07/02 08:03:49;;;;;;;10.60;6.90;;;17.80;99.90;;;;;;4138923;28;20058;-73
2021/07/02 08:05:50;;;;;;;9.68;6.43;;;17.80;99.90;;;;;;4138326;28;20054;-73
2021/07/02 08:07:51;;;;;;;10.93;6.55;;;17.80;99.90;;;;;;4138475;28;20097;-73
2021/07/02 08:09:51;;;;;;;10.20;6.53;;;17.90;99.90;;;;;;4139620;28;20081;-73
2021/07/02 08:11:52;;;;;;;13.45;7.65;;;18.00;99.90;;;;;;4137873;28;20053;-73
2021/07/02 08:13:52;;;;;;;11.02;6.05;;;18.10;99.90;;;;;;4140054;28;20390;-73
2021/07/02 08:15:53;;;;;;;10.35;6.10;;;18.10;99.90;;;;;;4138503;28;20441;-73
2021/07/02 08:17:54;;;;;;;10.68;6.05;;;18.20;99.90;;;;;;4139838;28;21509;-72
2021/07/02 08:19:56;;;;;;;11.18;6.50;;;18.20;99.90;;;;;;4137620;28;20042;-73
2021/07/02 08:21:57;;;;;;;12.00;6.15;;;18.20;99.90;;;;;;4139540;28;20034;-73
2021/07/02 08:23:57;;;;;;;11.35;6.82;;;18.30;99.90;;;;;;4139098;28;20029;-73
2021/07/02 08:25:58;;;;;;;14.25;7.18;;;18.30;99.90;;;;;;4139463;28;20567;-73
2021/07/02 08:30:19;;;;;;;14.38;5.95;;;18.40;99.90;;;;;;4138384;28;20049;-73
2021/07/02 08:32:20;;;;;;;11.45;6.20;;;18.40;99.90;;;;;;4139319;28;20068;-73
2021/07/02 08:34:20;;;;;;;10.98;5.82;;;18.40;99.90;;;;;;4139838;28;20042;-73
2021/07/02 08:36:21;;;;;;;9.75;5.97;;;18.50;99.90;;;;;;4140138;28;20061;-72
2021/07/02 08:38:22;;;;;;;11.85;5.97;;;18.50;99.90;;;;;;4139155;28;20379;-72
2021/07/02 08:40:23;;;;;;;13.00;7.65;;;18.50;99.90;;;;;;4138756;28;20065;-73
2021/07/02 08:42:25;;;;;;;10.75;5.85;;;18.60;99.90;;;;;;4139201;28;20104;-73
2021/07/02 08:44:26;;;;;;;10.55;6.20;;;18.60;99.90;;;;;;4136659;28;20140;-72
2021/07/02 08:46:27;;;;;;;13.43;5.93;;;18.60;99.90;;;;;;4137153;28;20494;-73
2021/07/02 08:48:28;;;;;;;13.93;7.38;;;18.70;99.90;;;;;;4139315;28;20049;-73
2021/07/02 08:50:29;;;;;;;14.10;6.97;;;18.70;99.90;;;;;;4138144;28;20045;-73
2021/07/02 08:52:32;;;;;;;16.88;8.32;;;18.70;99.90;;;;;;4136954;28;20045;-73
2021/07/02 08:54:32;;;;;;;10.80;7.00;;;18.70;99.90;;;;;;4138399;28;20096;-72
2021/07/02 08:56:33;;;;;;;11.20;6.22;;;18.70;99.90;;;;;;4139007;28;20046;-73
2021/07/02 08:58:35;;;;;;;10.93;5.80;;;18.70;99.90;;;;;;4139547;28;20034;-72
2021/07/02 09:00:36;;;;;;;;;;;18.70;99.90;;;;;;4137804;28;20514;-72
2021/07/02 09:02:39;;;;;;;12.88;7.95;;;18.80;99.90;;;;;;4125586;28;19910;-73
2021/07/02 09:04:40;;;;;;;12.05;7.88;;;18.80;99.90;;;;;;4137920;28;20096;-71
2021/07/02 09:06:41;;;;;;;11.85;7.30;;;18.70;99.90;;;;;;4139160;28;20030;-71
2021/07/02 09:08:59;;;;;;;13.55;7.43;;;18.80;99.90;;;;;;4137500;28;20049;-71
2021/07/02 09:11:00;;;;;;;9.45;6.10;;;18.90;99.90;;;;;;4138565;28;20116;-72
2021/07/02 09:13:01;;;;;;;13.85;8.02;;;18.90;99.90;;;;;;4137623;28;20041;-71
2021/07/02 09:15:06;;;;;;;16.38;8.63;;;19.00;99.90;;;;;;4138655;28;20045;-72
2021/07/02 09:17:11;;;;;;;11.20;6.47;;;19.00;99.90;;;;;;4138886;28;20042;-72
2021/07/02 09:19:27;;;;;;;11.60;7.43;;;19.00;99.90;;;;;;4138426;28;20049;-72
2021/07/02 09:21:30;;;;;;;11.45;6.57;;;19.00;99.90;;;;;;4138611;28;20069;-72
2021/07/02 09:23:38;;;;;;;14.10;7.38;;;19.10;99.90;;;;;;4139525;28;20824;-72
2021/07/02 09:25:54;;;;;;;12.23;7.05;;;19.20;99.90;;;;;;4138422;28;20465;-71
2021/07/02 09:28:00;;;;;;;9.63;5.93;;;19.30;99.90;;;;;;4135979;28;20042;-72
2021/07/02 09:30:08;;;;;;;14.40;6.60;;;19.30;99.90;;;;;;4136691;28;20108;-72
2021/07/02 09:32:09;;;;;;;11.13;7.30;;;19.40;99.90;;;;;;4137726;28;20057;-71
2021/07/02 09:34:10;;;;;;;13.90;7.00;;;19.50;99.90;;;;;;4137937;28;20030;-71
2021/07/02 09:36:17;;;;;;;13.32;6.90;;;19.60;99.90;;;;;;4138696;28;20461;-71
2021/07/02 09:38:30;;;;;;;9.85;5.80;;;19.70;99.90;;;;;;4137390;28;20367;-72
2021/07/02 09:40:36;;;;;;;12.85;6.30;;;19.80;99.90;;;;;;4136934;28;20058;-72
2021/07/02 09:42:37;;;;;;;10.90;6.05;;;19.90;99.90;;;;;;4137142;28;20038;-72
2021/07/02 09:44:38;;;;;;;9.32;6.55;;;20.00;99.90;;;;;;4137955;28;20071;-72
2021/07/02 09:46:38;;;;;;;13.38;6.13;;;20.00;99.90;;;;;;4137684;28;20588;-72
2021/07/02 09:48:44;;;;;;;9.38;5.15;;;20.10;99.90;;;;;;4138807;28;20058;-72
2021/07/02 09:50:46;;;;;;;8.82;5.55;;;20.20;99.90;;;;;;4138383;28;20486;-72
2021/07/02 09:52:55;;;;;;;8.50;5.05;;;20.30;99.90;;;;;;4139814;28;20046;-72
2021/07/02 09:55:03;;;;;;;9.45;5.25;;;20.40;99.90;;;;;;4139110;28;20175;-72
2021/07/02 09:57:18;;;;;;;7.80;4.60;;;20.50;99.90;;;;;;4138795;28;20061;-72
2021/07/02 09:59:19;;;;;;;11.32;4.90;;;20.50;99.90;;;;;;4137982;28;20172;-72
2021/07/02 10:01:32;;;;;;;7.43;5.07;;;20.50;99.90;;;;;;4139481;28;20049;-72
2021/07/02 10:03:35;;;;;;;12.00;5.03;;;20.40;99.90;;;;;;4139606;28;20045;-72
2021/07/02 10:05:50;;;;;;;7.72;4.85;;;20.40;99.90;;;;;;4138344;28;20033;-72
2021/07/02 10:08:09;;;;;;;7.88;4.28;;;20.40;99.90;;;;;;4137087;28;20128;-72
2021/07/02 10:10:10;;;;;;;8.60;4.00;;;20.30;99.90;;;;;;4136515;28;20050;-72
2021/07/02 10:12:10;;;;;;;7.93;4.68;;;20.30;99.90;;;;;;4137119;28;20412;-71
2021/07/02 10:14:11;;;;;;;10.13;4.80;;;20.30;99.90;;;;;;4138966;28;20034;-71
2021/07/02 10:16:14;;;;;;;6.47;4.65;;;20.30;99.90;;;;;;4138882;28;20034;-72
2021/07/02 10:18:16;;;;;;;9.02;5.03;;;20.20;99.90;;;;;;4136109;28;20041;-72
2021/07/02 10:20:19;;;;;;;10.70;4.95;;;20.20;99.90;;;;;;4137737;28;20030;-72
2021/07/02 10:22:22;;;;;;;8.50;4.13;;;20.20;99.90;;;;;;4137160;28;20088;-72
2021/07/02 10:24:23;;;;;;;8.70;4.93;;;20.30;99.90;;;;;;4134945;28;20485;-72
2021/07/02 10:26:26;;;;;;;11.50;4.68;;;20.30;99.90;;;;;;4139161;28;20577;-71